Time;durP1;ratioP1;P1;durP2;ratioP2;P2;SDS_P1;SDS_P2;PMS_P1;PMS_P2;Temp;Humidity;BMP_temperature;BMP_pressure;BME280_temperature;BME280_humidity;BME280_pressure;Samples;Min_cycle;Max_cycle;Signal;HPM_P1;HPM_P2
2022/06/30 00:00:27;;;;;;;9.05;6.97;;;19.90;99.90;;;;;;5034066;28;20025;-31
2022/06/30 00:02:52;;;;;;;7.78;6.63;;;19.80;99.90;;;;;;5033653;28;20034;-35
2022/06/30 00:05:18;;;;;;;10.68;7.85;;;19.90;99.90;;;;;;5038962;28;20029;-34
2022/06/30 00:07:44;;;;;;;12.07;7.57;;;19.90;99.90;;;;;;5043104;28;20393;-31
2022/06/30 00:10:11;;;;;;;15.80;9.93;;;19.90;99.90;;;;;;5037818;28;20474;-39
2022/06/30 00:12:40;;;;;;;11.38;7.75;;;19.90;99.90;;;;;;5032261;28;20049;-35
2022/06/30 00:15:07;;;;;;;10.15;7.05;;;19.80;99.90;;;;;;5041920;28;20037;-34
2022/06/30 00:17:33;;;;;;;12.48;8.50;;;19.90;99.90;;;;;;5032495;28;20470;-40
2022/06/30 00:19:58;;;;;;;10.57;8.27;;;19.90;99.90;;;;;;5047407;28;20085;-35
2022/06/30 00:22:25;;;;;;;11.02;8.70;;;19.80;99.90;;;;;;5040860;28;20100;-36
2022/06/30 00:24:51;;;;;;;9.80;8.25;;;19.80;99.90;;;;;;5033698;28;20037;-35
2022/06/30 00:27:17;;;;;;;15.90;8.95;;;19.80;99.90;;;;;;5032565;28;20022;-32
2022/06/30 00:29:43;;;;;;;10.65;8.63;;;19.70;99.90;;;;;;5046370;28;20079;-34
2022/06/30 00:32:09;;;;;;;12.48;9.05;;;19.70;99.90;;;;;;5045676;28;20465;-31
2022/06/30 00:34:35;;;;;;;14.07;7.95;;;19.70;99.90;;;;;;5033158;28;20053;-34
2022/06/30 00:37:01;;;;;;;11.38;8.05;;;19.70;99.90;;;;;;5040259;28;20056;-30
2022/06/30 00:39:27;;;;;;;12.32;8.27;;;19.60;99.90;;;;;;5049028;28;20059;-32
2022/06/30 00:41:54;;;;;;;12.27;9.75;;;19.50;99.90;;;;;;5033631;28;20025;-34
2022/06/30 00:44:20;;;;;;;10.43;8.77;;;19.50;99.90;;;;;;5036066;28;20531;-34
2022/06/30 00:46:45;;;;;;;12.88;9.20;;;19.50;99.90;;;;;;5030468;28;20041;-32
2022/06/30 00:49:11;;;;;;;13.40;9.80;;;19.40;99.90;;;;;;5033151;28;20076;-33
2022/06/30 00:51:37;;;;;;;12.60;9.38;;;19.40;99.90;;;;;;5032395;28;20478;-35
2022/06/30 00:54:04;;;;;;;16.02;9.38;;;19.40;99.90;;;;;;5038585;28;20103;-30
2022/06/30 00:56:32;;;;;;;10.27;9.10;;;19.40;99.90;;;;;;5035029;28;20028;-30
2022/06/30 00:59:00;;;;;;;;;;;19.40;99.90;;;;;;5036951;28;20037;-30
2022/06/30 01:01:26;;;;;;;11.52;8.98;;;19.40;99.90;;;;;;5037064;28;19916;-42
2022/06/30 01:03:55;;;;;;;15.82;9.90;;;19.30;99.90;;;;;;5048932;28;20470;-40
2022/06/30 01:06:22;;;;;;;15.85;9.48;;;19.30;99.90;;;;;;5033083;28;20095;-32
2022/06/30 01:08:48;;;;;;;13.77;9.38;;;19.30;99.90;;;;;;5035095;28;20084;-35
2022/06/30 01:14:01;;;;;;;12.95;9.88;;;19.30;99.90;;;;;;5034029;28;20048;-37
2022/06/30 01:16:27;;;;;;;13.57;9.98;;;19.30;99.90;;;;;;5036850;28;20025;-39
2022/06/30 01:18:52;;;;;;;11.75;9.13;;;19.30;99.90;;;;;;5037096;28;20030;-64
2022/06/30 01:21:18;;;;;;;18.58;9.43;;;19.30;99.90;;;;;;5034711;28;20045;-51
2022/06/30 01:23:44;;;;;;;13.25;9.20;;;19.30;99.90;;;;;;5044600;28;20021;-35
2022/06/30 01:26:10;;;;;;;15.27;7.70;;;19.30;99.90;;;;;;5035642;28;20025;-38
2022/06/30 01:28:35;;;;;;;13.35;9.93;;;19.30;99.90;;;;;;5035567;28;20075;-31
2022/06/30 01:31:01;;;;;;;14.20;9.82;;;19.30;99.90;;;;;;5034180;28;20029;-38
2022/06/30 01:33:26;;;;;;;14.38;8.65;;;19.40;99.90;;;;;;5034132;28;20437;-37
2022/06/30 01:35:57;;;;;;;12.88;9.00;;;19.40;99.90;;;;;;5037990;28;20025;-39
2022/06/30 01:38:23;;;;;;;11.65;8.43;;;19.40;99.90;;;;;;5044846;28;20021;-39
2022/06/30 01:40:49;;;;;;;11.23;8.50;;;19.50;99.90;;;;;;5052028;28;20025;-38
2022/06/30 01:43:15;;;;;;;12.95;9.27;;;19.40;99.90;;;;;;5035444;28;20025;-39
2022/06/30 01:45:42;;;;;;;11.80;8.57;;;19.50;99.90;;;;;;5035254;28;20033;-38
2022/06/30 01:48:09;;;;;;;12.30;8.02;;;19.50;99.90;;;;;;5055821;28;20033;-46
2022/06/30 01:50:35;;;;;;;9.85;8.05;;;19.60;99.90;;;;;;5043559;28;20032;-31
2022/06/30 01:53:02;;;;;;;12.05;7.38;;;19.60;99.90;;;;;;5036118;28;20052;-33
2022/06/30 01:55:28;;;;;;;9.75;7.90;;;19.60;99.90;;;;;;5035717;28;20022;-35
2022/06/30 01:57:54;;;;;;;10.88;8.13;;;19.60;99.90;;;;;;5052373;28;20036;-32
2022/06/30 02:00:23;;;;;;;13.27;8.32;;;19.60;99.90;;;;;;5046315;28;20022;-33
2022/06/30 02:02:50;;;;;;;15.35;8.63;;;19.70;99.90;;;;;;5035881;28;20374;-31
2022/06/30 02:05:16;;;;;;;12.68;8.05;;;19.80;99.90;;;;;;5035207;28;20500;-29
2022/06/30 02:07:42;;;;;;;12.75;8.43;;;19.90;99.90;;;;;;5034948;28;20036;-34
2022/06/30 02:10:10;;;;;;;10.27;8.13;;;20.00;99.90;;;;;;5033232;28;20073;-32
2022/06/30 02:12:45;;;;;;;14.60;9.18;;;20.10;99.90;;;;;;5033807;28;20041;-38
2022/06/30 02:15:12;;;;;;;15.63;8.75;;;20.10;99.90;;;;;;5035055;28;20723;-34
2022/06/30 02:17:39;;;;;;;12.30;8.27;;;20.20;99.90;;;;;;5035540;28;20025;-41
2022/06/30 02:20:07;;;;;;;12.18;8.90;;;20.30;99.90;;;;;;5034740;28;20095;-32
2022/06/30 02:22:33;;;;;;;12.68;7.95;;;20.30;99.90;;;;;;5035386;28;20079;-32
2022/06/30 02:24:59;;;;;;;11.30;7.80;;;20.30;99.90;;;;;;5035075;28;20063;-33
2022/06/30 02:27:24;;;;;;;12.30;8.45;;;20.30;99.90;;;;;;5050264;28;20057;-33
2022/06/30 02:29:53;;;;;;;13.57;8.38;;;20.30;99.90;;;;;;5034575;28;20556;-31
2022/06/30 02:32:20;;;;;;;14.55;8.13;;;20.40;99.90;;;;;;5034398;28;20088;-29
2022/06/30 02:34:46;;;;;;;13.07;8.15;;;20.30;99.90;;;;;;5034411;28;20030;-36
2022/06/30 02:37:12;;;;;;;13.57;8.10;;;20.30;99.90;;;;;;5033122;28;20462;-52
2022/06/30 02:39:38;;;;;;;10.93;8.63;;;20.30;99.90;;;;;;5047447;28;20022;-33
2022/06/30 02:42:04;;;;;;;12.93;7.80;;;20.30;99.90;;;;;;5033697;28;20109;-30
2022/06/30 02:44:29;;;;;;;11.30;8.00;;;20.30;99.90;;;;;;5034630;28;20025;-32
2022/06/30 02:46:55;;;;;;;11.10;8.43;;;20.30;99.90;;;;;;5048449;28;20489;-31
2022/06/30 02:49:21;;;;;;;10.30;7.90;;;20.20;99.90;;;;;;5055323;28;20056;-30
2022/06/30 02:51:48;;;;;;;15.68;8.80;;;20.20;99.90;;;;;;5033953;28;20029;-30
2022/06/30 02:54:14;;;;;;;10.68;7.75;;;20.30;99.90;;;;;;5035045;28;20069;-31
2022/06/30 02:56:40;;;;;;;9.95;7.93;;;20.30;99.90;;;;;;5046454;28;20032;-42
2022/06/30 02:59:06;;;;;;;10.77;8.18;;;20.20;99.90;;;;;;5052746;28;20412;-32
2022/06/30 03:01:32;;;;;;;11.82;8.45;;;20.20;99.90;;;;;;5033940;28;20029;-31
2022/06/30 03:03:58;;;;;;;15.80;8.20;;;20.10;99.90;;;;;;5033464;28;20029;-36
2022/06/30 03:06:23;;;;;;;12.82;7.93;;;20.00;99.90;;;;;;5043630;28;20029;-41
2022/06/30 03:08:49;;;;;;;14.80;9.50;;;20.00;99.90;;;;;;5054686;28;20120;-31
2022/06/30 03:11:17;;;;;;;16.73;8.27;;;20.00;99.90;;;;;;5040502;28;20021;-50
2022/06/30 03:13:46;;;;;;;12.85;8.10;;;20.00;99.90;;;;;;5034486;28;20041;-38
2022/06/30 03:16:12;;;;;;;12.48;8.48;;;19.90;99.90;;;;;;5042188;28;20501;-38
2022/06/30 03:18:39;;;;;;;11.25;8.63;;;19.90;99.90;;;;;;5054325;28;20116;-55
2022/06/30 03:21:05;;;;;;;16.05;9.07;;;19.80;99.90;;;;;;5042119;28;20038;-38
2022/06/30 03:23:31;;;;;;;12.27;8.75;;;19.70;99.90;;;;;;5034509;28;20101;-38
2022/06/30 03:25:56;;;;;;;14.60;9.18;;;19.80;99.90;;;;;;5039798;28;20119;-38
2022/06/30 03:28:22;;;;;;;11.07;8.35;;;19.70;99.90;;;;;;5054322;28;20032;-38
2022/06/30 03:30:48;;;;;;;12.23;9.13;;;19.70;99.90;;;;;;5042624;28;20516;-39
2022/06/30 03:33:15;;;;;;;12.50;8.95;;;19.60;99.90;;;;;;5031892;28;20103;-38
2022/06/30 03:35:40;;;;;;;14.00;9.43;;;19.50;99.90;;;;;;5033670;28;20034;-30
2022/06/30 03:38:06;;;;;;;13.20;9.07;;;19.50;99.90;;;;;;5046353;28;20033;-39
2022/06/30 03:40:32;;;;;;;13.57;8.60;;;19.40;99.90;;;;;;5046365;28;20013;-39
2022/06/30 03:42:58;;;;;;;14.63;8.30;;;19.40;99.90;;;;;;5047966;28;20405;-39
2022/06/30 03:45:24;;;;;;;15.50;9.40;;;19.30;99.90;;;;;;5050752;28;20060;-39
2022/06/30 03:47:49;;;;;;;12.35;9.20;;;19.20;99.90;;;;;;5053998;28;20017;-39
2022/06/30 03:50:15;;;;;;;10.15;8.38;;;19.20;99.90;;;;;;5043826;28;20048;-32
2022/06/30 03:52:40;;;;;;;15.52;9.52;;;19.10;99.90;;;;;;5042166;28;20507;-35
2022/06/30 03:55:06;;;;;;;11.77;9.00;;;19.10;99.90;;;;;;5053695;28;20029;-39
2022/06/30 03:57:32;;;;;;;15.13;9.00;;;19.20;99.90;;;;;;5022629;28;20018;-38
2022/06/30 03:59:58;;;;;;;11.13;8.32;;;19.30;99.90;;;;;;5032129;28;20493;-39
2022/06/30 04:02:23;;;;;;;12.10;9.52;;;19.30;99.90;;;;;;5032107;28;20079;-39
2022/06/30 04:04:49;;;;;;;12.27;8.68;;;19.20;99.90;;;;;;5032501;28;20018;-40
2022/06/30 04:07:14;;;;;;;12.90;8.82;;;19.20;99.90;;;;;;5034009;28;20022;-39
2022/06/30 04:09:40;;;;;;;12.52;8.23;;;19.20;99.90;;;;;;5033689;28;20028;-39
2022/06/30 04:12:06;;;;;;;13.98;8.80;;;19.20;99.90;;;;;;5035226;28;20536;-38
2022/06/30 04:14:31;;;;;;;13.45;8.38;;;19.30;99.90;;;;;;5050750;28;20035;-38
2022/06/30 04:16:57;;;;;;;11.18;8.40;;;19.30;99.90;;;;;;5034719;28;20029;-36
2022/06/30 04:19:23;;;;;;;16.05;10.02;;;19.30;99.90;;;;;;5032827;28;20057;-33
2022/06/30 04:21:49;;;;;;;12.65;9.20;;;19.30;99.90;;;;;;5033924;28;20040;-37
2022/06/30 04:24:15;;;;;;;13.65;8.88;;;19.30;99.90;;;;;;5032662;28;20025;-31
2022/06/30 04:26:40;;;;;;;13.18;8.75;;;19.40;99.90;;;;;;5033402;28;20032;-32
2022/06/30 04:29:06;;;;;;;12.63;9.80;;;19.40;99.90;;;;;;5031852;28;20385;-34
2022/06/30 04:34:16;;;;;;;14.02;9.20;;;19.40;99.90;;;;;;5030964;28;20461;-32
2022/06/30 04:36:41;;;;;;;14.57;9.57;;;19.40;99.90;;;;;;5031249;28;20041;-40
2022/06/30 04:39:07;;;;;;;13.90;8.65;;;19.40;99.90;;;;;;5032502;28;20038;-39
2022/06/30 04:41:32;;;;;;;14.38;9.73;;;19.50;99.90;;;;;;5032578;28;20477;-40
2022/06/30 04:44:00;;;;;;;13.48;9.40;;;19.60;99.90;;;;;;5037300;28;20048;-31
2022/06/30 04:46:26;;;;;;;14.25;9.52;;;19.60;99.90;;;;;;5032565;28;20033;-33
2022/06/30 04:48:53;;;;;;;13.98;9.82;;;19.70;99.90;;;;;;5033151;28;20029;-40
2022/06/30 04:51:19;;;;;;;14.43;9.73;;;19.70;99.90;;;;;;5032353;28;20036;-39
2022/06/30 04:53:45;;;;;;;17.75;10.05;;;19.70;99.90;;;;;;5031570;28;20366;-39
2022/06/30 04:56:11;;;;;;;18.20;11.13;;;19.80;99.90;;;;;;5031534;28;20087;-38
2022/06/30 04:58:37;;;;;;;19.55;11.07;;;19.80;99.90;;;;;;5033162;28;20026;-42
2022/06/30 05:01:04;;;;;;;13.07;10.45;;;19.90;99.90;;;;;;5031570;28;20120;-37
2022/06/30 05:03:29;;;;;;;13.07;9.60;;;19.90;99.90;;;;;;5032036;28;20076;-30
2022/06/30 05:05:56;;;;;;;15.80;10.90;;;19.90;99.90;;;;;;5032466;28;20037;-33
2022/06/30 05:08:21;;;;;;;15.32;10.38;;;20.00;99.90;;;;;;5033192;28;20433;-30
2022/06/30 05:10:47;;;;;;;17.83;11.07;;;20.10;99.90;;;;;;5032849;28;20029;-30
2022/06/30 05:13:13;;;;;;;16.15;11.65;;;20.10;99.90;;;;;;5029808;28;20088;-31
2022/06/30 05:15:38;;;;;;;17.58;11.52;;;20.20;99.90;;;;;;5041272;28;20115;-31
2022/06/30 05:18:04;;;;;;;22.58;13.25;;;20.20;99.90;;;;;;5044754;28;20021;-49
2022/06/30 05:20:31;;;;;;;20.35;13.18;;;20.30;99.90;;;;;;5032836;28;20036;-35
2022/06/30 05:22:57;;;;;;;18.75;13.32;;;20.40;99.90;;;;;;5029839;28;20025;-30
2022/06/30 05:28:07;;;;;;;23.65;12.95;;;20.40;99.90;;;;;;5029173;28;20116;-36
2022/06/30 05:30:33;;;;;;;19.00;12.70;;;20.50;99.90;;;;;;5028751;28;20081;-37
2022/06/30 05:32:58;;;;;;;21.38;14.27;;;20.40;99.90;;;;;;5048110;28;20029;-31
2022/06/30 05:35:24;;;;;;;21.30;13.50;;;20.40;99.90;;;;;;5041193;28;20029;-32
2022/06/30 05:37:50;;;;;;;18.15;13.02;;;20.50;99.90;;;;;;5029581;28;20104;-38
2022/06/30 05:40:15;;;;;;;16.88;12.30;;;20.50;99.90;;;;;;5033273;28;20025;-32
2022/06/30 05:42:41;;;;;;;18.73;12.98;;;20.50;99.90;;;;;;5034072;28;20029;-30
2022/06/30 05:45:07;;;;;;;19.50;12.93;;;20.50;99.90;;;;;;5035627;28;20485;-32
2022/06/30 05:47:33;;;;;;;18.88;12.73;;;20.50;99.90;;;;;;5037454;28;20540;-32
2022/06/30 05:49:58;;;;;;;23.17;13.80;;;20.50;99.90;;;;;;5038292;28;20179;-34
2022/06/30 05:52:24;;;;;;;19.42;13.48;;;20.40;99.90;;;;;;5054109;28;20029;-31
2022/06/30 05:54:50;;;;;;;22.23;14.18;;;20.50;99.90;;;;;;5039767;28;20025;-33
2022/06/30 05:57:15;;;;;;;20.58;14.18;;;20.50;99.90;;;;;;5042696;28;20021;-71
2022/06/30 05:59:41;;;;;;;18.40;13.18;;;20.50;99.90;;;;;;5056039;28;20025;-39
2022/06/30 06:02:07;;;;;;;21.17;13.68;;;20.50;99.90;;;;;;5033962;28;20037;-42
2022/06/30 06:04:34;;;;;;;19.13;13.45;;;20.50;99.90;;;;;;5035517;28;20025;-43
2022/06/30 06:07:18;;;;;;;18.73;14.45;;;20.50;99.90;;;;;;5035005;28;20477;-39
2022/06/30 06:09:44;;;;;;;24.52;13.73;;;20.60;99.90;;;;;;5035840;28;20036;-40
2022/06/30 06:12:10;;;;;;;13.38;9.63;;;20.60;99.90;;;;;;5052944;28;20048;-39
2022/06/30 06:14:35;;;;;;;17.73;8.13;;;20.60;99.90;;;;;;5050742;28;20026;-49
2022/06/30 06:17:01;;;;;;;10.05;6.78;;;20.70;99.90;;;;;;5033796;28;20060;-43
2022/06/30 06:19:26;;;;;;;10.88;5.80;;;21.20;99.90;;;;;;5045330;28;20025;-40
2022/06/30 06:21:52;;;;;;;11.73;4.32;;;22.20;99.90;;;;;;5055602;28;20596;-38
2022/06/30 06:24:17;;;;;;;8.57;4.40;;;23.10;99.90;;;;;;5051812;28;20477;-36
2022/06/30 06:26:43;;;;;;;13.90;4.53;;;23.40;99.90;;;;;;5047432;28;20473;-39
2022/06/30 06:29:09;;;;;;;6.00;3.60;;;23.50;99.90;;;;;;5046733;28;20025;-39
2022/06/30 06:31:37;;;;;;;4.28;3.03;;;24.50;99.90;;;;;;5033927;28;20080;-39
2022/06/30 06:34:04;;;;;;;5.22;3.15;;;25.10;99.90;;;;;;5042762;28;20025;-39
2022/06/30 06:36:30;;;;;;;5.22;3.03;;;25.50;99.90;;;;;;5036580;28;20393;-37
2022/06/30 06:38:57;;;;;;;6.22;3.05;;;26.40;99.90;;;;;;5033426;28;20013;-38
2022/06/30 06:41:23;;;;;;;8.95;3.08;;;27.10;99.90;;;;;;5035113;28;20500;-37
2022/06/30 06:43:50;;;;;;;6.68;3.88;;;27.60;99.90;;;;;;5034000;28;20022;-38
2022/06/30 06:46:16;;;;;;;4.60;3.33;;;27.40;99.90;;;;;;5033690;28;20032;-36
2022/06/30 06:48:42;;;;;;;6.10;3.67;;;26.90;99.90;;;;;;5033440;28;20029;-37
2022/06/30 06:51:08;;;;;;;5.93;3.33;;;26.90;99.90;;;;;;5032196;28;20029;-38
2022/06/30 06:53:36;;;;;;;5.28;3.63;;;26.50;99.90;;;;;;5036612;28;20500;-37
2022/06/30 06:56:01;;;;;;;11.27;3.50;;;25.20;99.90;;;;;;5034895;28;20385;-37
2022/06/30 06:58:27;;;;;;;10.75;3.78;;;24.20;99.90;;;;;;5036038;28;20026;-37
2022/06/30 07:00:54;;;;;;;8.45;4.90;;;23.60;99.90;;;;;;5029710;28;20036;-38
2022/06/30 07:03:20;;;;;;;10.30;4.10;;;23.10;99.90;;;;;;5035611;28;20013;-38
2022/06/30 07:05:46;;;;;;;7.78;4.10;;;23.00;99.90;;;;;;5038218;28;20037;-37
2022/06/30 07:08:11;;;;;;;6.13;4.25;;;23.20;99.90;;;;;;5038005;28;20493;-36
2022/06/30 07:10:37;;;;;;;5.38;4.18;;;23.10;99.90;;;;;;5035201;28;20120;-36
2022/06/30 07:13:02;;;;;;;7.93;4.13;;;23.30;99.90;;;;;;5039907;28;20056;-38
2022/06/30 07:15:28;;;;;;;10.77;4.18;;;23.60;99.90;;;;;;5034821;28;20136;-37
2022/06/30 07:17:54;;;;;;;4.97;3.55;;;24.70;99.90;;;;;;5028591;28;20020;-37
2022/06/30 07:20:19;;;;;;;8.30;3.95;;;26.00;99.90;;;;;;5027788;28;20033;-38
2022/06/30 07:22:45;;;;;;;9.63;3.70;;;26.60;99.90;;;;;;5039268;28;20053;-36
2022/06/30 07:25:11;;;;;;;6.55;2.97;;;26.10;99.90;;;;;;5054029;28;20029;-36
2022/06/30 07:27:37;;;;;;;8.27;2.95;;;25.30;99.90;;;;;;5054413;28;20021;-36
2022/06/30 07:30:04;;;;;;;14.98;3.00;;;24.70;99.90;;;;;;5032805;28;20118;-38
2022/06/30 07:32:30;;;;;;;3.23;2.20;;;24.70;99.90;;;;;;5022440;28;20025;-37
2022/06/30 07:34:55;;;;;;;6.88;2.55;;;25.20;99.90;;;;;;5028918;28;20298;-38
2022/06/30 07:37:21;;;;;;;13.55;2.88;;;25.10;99.90;;;;;;5034160;28;20018;-38
2022/06/30 07:39:47;;;;;;;6.97;2.35;;;24.90;99.90;;;;;;5033501;28;20052;-36
2022/06/30 07:42:12;;;;;;;3.88;2.15;;;24.70;99.90;;;;;;5028721;28;20093;-34
2022/06/30 07:44:38;;;;;;;7.18;2.33;;;24.70;99.90;;;;;;5032395;28;20033;-31
2022/06/30 07:47:04;;;;;;;3.17;1.90;;;24.70;99.90;;;;;;5032751;28;20541;-32
2022/06/30 07:49:29;;;;;;;5.28;2.35;;;25.00;99.90;;;;;;5033538;28;20053;-29
2022/06/30 07:51:55;;;;;;;8.45;2.75;;;24.50;99.90;;;;;;5031771;28;20042;-31
2022/06/30 07:54:20;;;;;;;9.07;2.60;;;23.70;99.90;;;;;;5031812;28;20036;-28
2022/06/30 07:56:46;;;;;;;3.00;1.70;;;23.50;99.90;;;;;;5033833;28;20053;-29
2022/06/30 07:59:13;;;;;;;5.47;2.63;;;23.50;99.90;;;;;;5033005;28;20082;-35
2022/06/30 08:01:39;;;;;;;5.72;2.38;;;23.60;99.90;;;;;;5033055;28;20539;-30
2022/06/30 08:04:05;;;;;;;3.45;1.90;;;23.80;99.90;;;;;;5032880;28;20022;-30
2022/06/30 08:06:30;;;;;;;6.47;2.65;;;24.10;99.90;;;;;;5032709;28;20029;-31
2022/06/30 08:08:56;;;;;;;7.65;2.55;;;24.00;99.90;;;;;;5032054;28;20032;-30
2022/06/30 08:11:22;;;;;;;5.22;2.90;;;24.20;99.90;;;;;;5032492;28;20088;-30
2022/06/30 08:13:48;;;;;;;7.03;2.70;;;24.00;99.90;;;;;;5032725;28;20025;-35
2022/06/30 08:16:15;;;;;;;9.85;2.60;;;23.60;99.90;;;;;;5032420;28;20315;-34
2022/06/30 08:18:42;;;;;;;3.17;2.17;;;23.30;99.90;;;;;;5031816;28;20466;-44
2022/06/30 08:21:09;;;;;;;7.07;2.00;;;23.60;99.90;;;;;;5033427;28;20026;-29
2022/06/30 08:23:35;;;;;;;5.53;2.20;;;23.70;99.90;;;;;;5033126;28;20068;-30
2022/06/30 08:26:01;;;;;;;10.13;2.38;;;24.00;99.90;;;;;;5033331;28;20017;-29
2022/06/30 08:28:27;;;;;;;4.78;2.72;;;24.00;99.90;;;;;;5032270;28;20124;-29
2022/06/30 08:30:52;;;;;;;5.72;2.20;;;23.80;99.90;;;;;;5031929;28;20099;-29
2022/06/30 08:33:18;;;;;;;6.03;1.58;;;24.10;99.90;;;;;;5033305;28;20029;-30
2022/06/30 08:35:44;;;;;;;3.08;2.13;;;23.70;99.90;;;;;;5032234;28;20026;-31
2022/06/30 08:38:09;;;;;;;4.18;1.92;;;23.50;99.90;;;;;;5032120;28;20386;-36
2022/06/30 08:43:27;;;;;;;6.50;2.15;;;23.70;99.90;;;;;;5033187;28;20056;-30
2022/06/30 08:45:54;;;;;;;4.80;1.92;;;23.90;99.90;;;;;;5032976;28;20481;-33
2022/06/30 08:48:19;;;;;;;7.07;2.13;;;23.70;99.90;;;;;;5029705;28;20075;-39
2022/06/30 08:50:47;;;;;;;3.40;1.83;;;23.50;99.90;;;;;;5027372;28;20775;-30
2022/06/30 08:53:16;;;;;;;10.25;2.72;;;23.90;99.90;;;;;;5029455;28;20091;-29
2022/06/30 08:55:42;;;;;;;6.47;2.22;;;24.50;99.90;;;;;;5032088;28;20026;-31
2022/06/30 08:58:09;;;;;;;8.43;2.03;;;24.20;99.90;;;;;;5032130;28;20427;-34
2022/06/30 09:00:39;;;;;;;3.75;1.77;;;24.20;99.90;;;;;;5030994;28;20018;-35
2022/06/30 09:03:05;;;;;;;4.55;1.73;;;24.20;99.90;;;;;;5030493;28;20427;-30
2022/06/30 09:05:32;;;;;;;6.13;1.83;;;24.30;99.90;;;;;;5031106;28;20482;-31
2022/06/30 09:07:58;;;;;;;3.30;1.70;;;24.40;99.90;;;;;;5033277;28;20520;-29
2022/06/30 09:10:25;;;;;;;1.53;1.43;;;24.70;99.90;;;;;;5032525;28;20481;-30
2022/06/30 09:13:02;;;;;;;2.90;2.22;;;25.00;99.90;;;;;;5028428;28;20072;-37
2022/06/30 09:15:37;;;;;;;5.15;1.73;;;25.40;99.90;;;;;;5014880;28;20069;-31
2022/06/30 09:18:03;;;;;;;4.10;1.77;;;25.60;99.90;;;;;;5027473;28;20029;-30
2022/06/30 09:20:35;;;;;;;4.43;1.47;;;25.50;99.90;;;;;;5035813;28;20053;-30
2022/06/30 09:23:00;;;;;;;6.88;2.13;;;25.40;99.90;;;;;;5035765;28;20064;-31
2022/06/30 09:25:30;;;;;;;5.03;1.83;;;24.80;99.90;;;;;;5036363;28;20488;-33
2022/06/30 09:27:56;;;;;;;3.80;1.30;;;24.30;99.90;;;;;;5036471;28;20025;-30
2022/06/30 09:30:24;;;;;;;3.05;1.40;;;24.10;99.90;;;;;;5036641;28;20422;-30
2022/06/30 09:32:52;;;;;;;3.58;1.30;;;24.30;99.90;;;;;;5033215;28;20121;-29
2022/06/30 09:35:20;;;;;;;6.85;1.60;;;24.70;99.90;;;;;;5035778;28;20473;-29
2022/06/30 09:38:10;;;;;;;2.92;1.58;;;24.90;99.90;;;;;;5036469;28;20108;-29
2022/06/30 09:43:34;;;;;;;2.97;1.17;;;24.80;99.90;;;;;;5035854;28;20056;-30
2022/06/30 09:46:00;;;;;;;4.18;1.75;;;24.80;99.90;;;;;;5036309;28;20482;-30
2022/06/30 09:48:31;;;;;;;5.53;1.50;;;24.50;99.90;;;;;;5034795;28;20029;-30
2022/06/30 09:51:02;;;;;;;1.67;1.40;;;24.60;99.90;;;;;;5035226;28;20378;-31
2022/06/30 09:53:28;;;;;;;1.05;0.85;;;24.70;99.90;;;;;;5035245;28;20540;-32
2022/06/30 09:55:54;;;;;;;6.60;1.60;;;24.90;99.90;;;;;;5036104;28;20021;-29
2022/06/30 09:58:26;;;;;;;2.80;1.33;;;25.20;99.90;;;;;;5033466;28;20029;-38
2022/06/30 10:00:52;;;;;;;4.57;1.42;;;25.10;99.90;;;;;;5036045;28;20100;-33
2022/06/30 10:03:19;;;;;;;4.93;1.63;;;25.10;99.90;;;;;;5034378;28;20109;-31
2022/06/30 10:05:46;;;;;;;5.68;1.30;;;25.40;99.90;;;;;;5032565;28;20104;-30
2022/06/30 10:08:14;;;;;;;3.33;1.65;;;25.70;99.90;;;;;;5036169;28;20176;-30
2022/06/30 10:10:42;;;;;;;3.25;0.95;;;26.10;99.90;;;;;;5025602;28;20030;-30
2022/06/30 10:13:16;;;;;;;4.93;1.30;;;26.80;99.80;;;;;;5015830;28;20076;-35
2022/06/30 10:15:47;;;;;;;2.90;1.13;;;27.50;98.30;;;;;;5024659;28;20489;-33
2022/06/30 10:18:15;;;;;;;11.02;1.42;;;27.10;98.10;;;;;;5035861;28;20029;-30
2022/06/30 10:20:40;;;;;;;7.72;1.52;;;26.60;98.30;;;;;;5033769;28;20025;-34
2022/06/30 10:23:08;;;;;;;6.63;1.33;;;26.10;99.10;;;;;;5034004;28;20040;-31
2022/06/30 10:25:35;;;;;;;5.57;1.27;;;25.60;99.70;;;;;;5034901;28;20030;-30
2022/06/30 10:28:03;;;;;;;3.30;1.10;;;25.40;99.90;;;;;;5034494;28;20025;-47
2022/06/30 10:30:40;;;;;;;3.42;1.05;;;25.70;99.90;;;;;;5034398;28;20216;-30
2022/06/30 10:33:12;;;;;;;;;;;25.50;99.90;;;;;;5035250;28;20193;-33
2022/06/30 10:35:41;;;;;;;2.75;0.82;;;25.10;99.90;;;;;;5031634;28;19952;-33
2022/06/30 10:38:22;;;;;;;2.47;1.00;;;25.40;99.90;;;;;;5034802;28;20485;-49
2022/06/30 10:41:12;;;;;;;6.80;1.30;;;25.10;99.90;;;;;;5034673;28;20029;-39
2022/06/30 10:44:05;;;;;;;2.75;1.23;;;24.60;99.90;;;;;;5029426;28;20053;-42
2022/06/30 10:46:56;;;;;;;4.70;0.88;;;24.50;99.90;;;;;;5035181;28;20018;-37
2022/06/30 10:49:24;;;;;;;5.82;2.55;;;24.60;99.90;;;;;;5033591;28;20490;-38
2022/06/30 10:51:54;;;;;;;5.40;1.00;;;24.80;99.90;;;;;;5033633;28;20025;-37
2022/06/30 10:54:33;;;;;;;2.20;0.98;;;25.00;99.90;;;;;;5024293;28;20112;-37
2022/06/30 10:57:01;;;;;;;6.60;1.10;;;25.10;99.90;;;;;;5015340;28;20057;-38
2022/06/30 10:59:36;;;;;;;4.40;1.20;;;24.90;99.90;;;;;;5029387;28;20504;-37
2022/06/30 11:02:10;;;;;;;3.60;1.30;;;25.00;99.90;;;;;;5034939;28;20359;-38
2022/06/30 11:04:41;;;;;;;2.22;1.10;;;25.00;99.90;;;;;;5034147;28;20037;-38
2022/06/30 11:07:14;;;;;;;5.70;1.30;;;24.60;99.90;;;;;;5034021;28;20028;-39
2022/06/30 11:09:54;;;;;;;3.95;1.13;;;24.50;99.90;;;;;;5033412;28;20025;-36
2022/06/30 11:12:25;;;;;;;2.28;1.20;;;24.40;99.90;;;;;;5033937;28;20061;-38
2022/06/30 11:14:55;;;;;;;4.70;1.02;;;24.60;99.90;;;;;;5033213;28;20033;-38
2022/06/30 11:17:22;;;;;;;2.75;0.80;;;24.60;99.90;;;;;;5033817;28;20101;-38
2022/06/30 11:19:48;;;;;;;1.40;1.30;;;24.70;99.90;;;;;;5034118;28;20033;-39
2022/06/30 11:22:16;;;;;;;1.58;0.80;;;24.60;99.90;;;;;;5033485;28;20552;-37
2022/06/30 11:24:47;;;;;;;2.13;1.30;;;24.80;99.90;;;;;;5034504;28;20028;-39
2022/06/30 11:27:21;;;;;;;3.80;1.20;;;25.10;99.90;;;;;;5033666;28;20036;-37
2022/06/30 11:29:48;;;;;;;2.03;0.93;;;24.90;99.90;;;;;;5033912;28;20030;-39
2022/06/30 11:32:14;;;;;;;3.85;1.10;;;25.10;99.90;;;;;;5033773;28;20022;-38
2022/06/30 11:34:41;;;;;;;2.33;1.10;;;25.30;99.90;;;;;;5033163;28;20079;-47
2022/06/30 11:37:10;;;;;;;1.63;1.20;;;25.20;99.60;;;;;;5032180;28;20386;-38
2022/06/30 11:39:35;;;;;;;2.45;1.25;;;24.70;99.90;;;;;;5034087;28;20067;-38
2022/06/30 11:42:11;;;;;;;1.90;0.93;;;24.40;99.90;;;;;;5033599;28;20422;-38
2022/06/30 11:44:40;;;;;;;3.58;1.25;;;24.20;99.90;;;;;;5032943;28;20143;-38
2022/06/30 11:47:11;;;;;;;3.85;1.20;;;24.50;99.90;;;;;;5034176;28;20497;-38
2022/06/30 11:49:54;;;;;;;4.93;1.10;;;24.70;99.90;;;;;;5033357;28;20036;-38
2022/06/30 11:52:29;;;;;;;3.38;1.50;;;24.50;99.90;;;;;;5032586;28;20029;-37
2022/06/30 11:55:04;;;;;;;2.47;1.52;;;23.90;99.90;;;;;;5032675;28;20505;-39
2022/06/30 11:57:36;;;;;;;2.10;1.17;;;23.60;99.90;;;;;;5032200;28;20029;-38
2022/06/30 12:00:09;;;;;;;1.38;1.27;;;23.60;99.90;;;;;;5033520;28;20382;-44
2022/06/30 12:02:36;;;;;;;6.43;1.20;;;23.60;99.90;;;;;;5032946;28;20071;-38
2022/06/30 12:05:05;;;;;;;7.43;1.50;;;23.60;99.90;;;;;;5030828;28;20393;-37
2022/06/30 12:07:31;;;;;;;2.78;1.30;;;23.50;99.90;;;;;;5032400;28;20037;-38
2022/06/30 12:09:57;;;;;;;4.53;1.40;;;23.40;99.90;;;;;;5033326;28;20384;-38
2022/06/30 12:12:28;;;;;;;3.15;1.05;;;23.40;99.90;;;;;;5033308;28;20067;-38
2022/06/30 12:14:56;;;;;;;5.97;1.15;;;23.30;99.90;;;;;;5032022;28;20497;-38
2022/06/30 12:17:22;;;;;;;2.17;0.98;;;23.20;99.90;;;;;;5032847;28;20022;-37
2022/06/30 12:19:51;;;;;;;3.70;1.10;;;23.20;99.90;;;;;;5033863;28;20413;-33
2022/06/30 12:22:18;;;;;;;13.15;1.27;;;23.30;99.90;;;;;;5032242;28;20032;-32
2022/06/30 12:24:46;;;;;;;6.10;1.05;;;23.30;99.90;;;;;;5033461;28;20025;-31
2022/06/30 12:27:35;;;;;;;6.90;1.02;;;23.20;99.90;;;;;;5032688;28;20436;-33
2022/06/30 12:30:15;;;;;;;2.35;0.70;;;23.10;99.90;;;;;;5033358;28;20091;-30
2022/06/30 12:32:41;;;;;;;3.60;1.02;;;23.20;99.90;;;;;;5032677;28;20429;-32
2022/06/30 12:35:11;;;;;;;9.95;1.33;;;23.30;99.90;;;;;;5032025;28;20059;-31
2022/06/30 12:37:40;;;;;;;3.92;0.75;;;23.30;99.90;;;;;;5030560;28;20025;-33
2022/06/30 12:40:08;;;;;;;2.58;1.17;;;23.50;99.90;;;;;;5031193;28;20022;-29
2022/06/30 12:42:48;;;;;;;1.40;0.90;;;23.60;99.90;;;;;;5033450;28;20100;-30
2022/06/30 12:45:39;;;;;;;7.78;1.20;;;23.60;99.90;;;;;;5032154;28;20448;-32
2022/06/30 12:48:06;;;;;;;1.15;1.05;;;23.70;99.90;;;;;;5023869;28;20025;-37
2022/06/30 12:50:33;;;;;;;;;;;23.60;99.90;;;;;;5038160;28;20029;-31
2022/06/30 12:53:28;;;;;;;4.97;0.90;;;23.40;99.90;;;;;;5044157;28;20758;-33
2022/06/30 12:56:17;;;;;;;2.65;0.73;;;23.10;99.90;;;;;;5031521;28;20548;-30